Wagner, Pennsylvania
Current Conditions -  °F | °C
As of 10:53 AM on Monday 22 Dec 2014 (Local Time) from KUNV Reporting Station
Overcast Overcast  
Wind Chill: -2°   Ceiling: 2300
Heat Index: -2°   Visibility: 10mi
Dew Point: -4°   Wind: 0mph
Humidity: 86%   Direction: NA
Pressure: 30.22"   Gusts: NA
Location:  40.7125°N, 77.3707°W
Report Text: KUNV 221553Z 00000KT 10SM OVC023 M02/M04 A3022
Loading
Personal Weather Stations






























Interactive Weather Map New forecast layout! Learn more

10-Day Weather Forecast

Advertisements
Track Severe Weather on mobile